Time;durP1;ratioP1;P1;durP2;ratioP2;P2;SDS_P1;SDS_P2;PMS_P1;PMS_P2;Temp;Humidity;BMP_temperature;BMP_pressure;BME280_temperature;BME280_humidity;BME280_pressure;Samples;Min_cycle;Max_cycle;Signal;HPM_P1;HPM_P2
2023/12/25 00:01:41;;;;;;;10.63;7.63;;;;;;;7.87;59.90;94769.53;4987304;28;20221;-70
2023/12/25 00:04:06;;;;;;;13.73;7.90;;;;;;;7.87;59.83;94751.19;4985966;28;20187;-69
2023/12/25 00:06:31;;;;;;;14.33;8.17;;;;;;;7.77;60.32;94757.44;4982916;28;20231;-74
2023/12/25 00:08:57;;;;;;;11.00;7.40;;;;;;;7.77;60.03;94750.38;4984071;28;20223;-71
2023/12/25 00:11:22;;;;;;;10.93;8.13;;;;;;;7.68;60.29;94746.00;4984767;28;20246;-67
2023/12/25 00:13:51;;;;;;;12.53;7.30;;;;;;;7.64;60.16;94747.25;4988684;28;20215;-68
2023/12/25 00:16:16;;;;;;;11.37;7.77;;;;;;;7.71;60.36;94737.88;4988460;28;20227;-69
2023/12/25 00:18:42;;;;;;;13.23;8.13;;;;;;;7.57;60.58;94747.00;4987964;28;20191;-69
2023/12/25 00:21:07;;;;;;;15.70;7.73;;;;;;;7.51;60.80;94747.53;4980510;28;20223;-72
2023/12/25 00:23:33;;;;;;;12.47;8.20;;;;;;;7.54;60.95;94736.81;4982015;28;20239;-69
2023/12/25 00:25:58;;;;;;;12.83;7.83;;;;;;;7.41;61.36;94749.34;4984597;28;20309;-74
2023/12/25 00:28:24;;;;;;;11.53;7.93;;;;;;;7.48;61.23;94738.22;4990790;28;20214;-69
2023/12/25 00:30:49;;;;;;;11.20;7.57;;;;;;;7.43;61.10;94734.31;4987472;28;20285;-69
2023/12/25 00:33:15;;;;;;;14.03;7.33;;;;;;;7.50;60.96;94736.25;4990641;28;20197;-68
2023/12/25 00:35:40;;;;;;;10.23;6.83;;;;;;;7.40;60.97;94734.59;4981865;28;20315;-73
2023/12/25 00:38:05;;;;;;;12.63;7.30;;;;;;;7.44;61.12;94734.19;4984359;28;20223;-73
2023/12/25 00:40:31;;;;;;;11.17;6.93;;;;;;;7.49;61.01;94731.19;4987851;28;20243;-71
2023/12/25 00:42:56;;;;;;;11.47;7.07;;;;;;;7.45;61.21;94733.22;4990199;28;20255;-68
2023/12/25 00:45:22;;;;;;;11.87;7.17;;;;;;;7.52;61.29;94738.75;4992644;28;20274;-67
2023/12/25 00:47:47;;;;;;;12.97;7.97;;;;;;;7.50;61.00;94738.88;4988486;28;20218;-68
2023/12/25 00:50:13;;;;;;;10.80;7.30;;;;;;;7.59;60.80;94729.38;4986098;28;20223;-68
2023/12/25 00:52:38;;;;;;;11.93;6.70;;;;;;;7.53;61.01;94744.78;4987698;28;20227;-68
2023/12/25 00:55:04;;;;;;;11.20;7.33;;;;;;;7.38;61.23;94737.38;4990695;28;20278;-69
2023/12/25 00:57:30;;;;;;;13.37;7.70;;;;;;;7.39;61.25;94749.47;4983231;28;20283;-69
2023/12/25 00:59:55;;;;;;;11.60;7.30;;;;;;;7.25;61.70;94755.16;4983219;28;20250;-69
2023/12/25 01:02:20;;;;;;;11.90;7.63;;;;;;;7.31;61.40;94748.53;4994316;28;20238;-73
2023/12/25 01:04:46;;;;;;;11.40;6.60;;;;;;;7.25;61.56;94748.13;4985940;28;20273;-72
2023/12/25 01:07:11;;;;;;;9.83;6.90;;;;;;;7.15;61.81;94742.06;4989883;28;20296;-73
2023/12/25 01:09:37;;;;;;;10.73;7.70;;;;;;;7.21;61.80;94744.13;4984705;28;20365;-72
2023/12/25 01:12:02;;;;;;;13.03;7.97;;;;;;;7.24;61.59;94746.47;4985065;28;20228;-73
2023/12/25 01:14:27;;;;;;;12.33;8.30;;;;;;;7.35;61.32;94766.44;5003002;28;20269;-69
2023/12/25 01:16:53;;;;;;;13.40;7.30;;;;;;;7.23;61.56;94744.00;4985862;28;20231;-69
2023/12/25 01:19:19;;;;;;;13.03;7.73;;;;;;;7.18;61.75;94735.72;4986243;28;20290;-74
2023/12/25 01:21:44;;;;;;;11.10;7.60;;;;;;;7.17;61.64;94736.72;4984630;28;20226;-69
2023/12/25 01:24:09;;;;;;;13.93;7.47;;;;;;;7.12;61.56;94739.72;4985306;28;20230;-73
2023/12/25 01:26:35;;;;;;;11.53;7.23;;;;;;;7.20;61.50;94718.94;4995768;28;20226;-68
2023/12/25 01:29:00;;;;;;;11.83;7.80;;;;;;;7.13;61.81;94730.09;4979909;28;20224;-69
2023/12/25 01:31:26;;;;;;;12.20;7.03;;;;;;;7.20;61.80;94725.97;4972507;28;20239;-72
2023/12/25 01:33:51;;;;;;;10.23;7.07;;;;;;;7.34;61.48;94711.63;4985504;28;20184;-68
2023/12/25 01:36:16;;;;;;;14.43;7.20;;;;;;;7.39;61.45;94728.56;4980971;28;20183;-69
2023/12/25 01:38:42;;;;;;;10.23;6.53;;;;;;;7.42;61.51;94723.03;4991119;28;20306;-69
2023/12/25 01:41:07;;;;;;;8.93;5.93;;;;;;;7.41;61.60;94721.41;4982977;28;20304;-69
2023/12/25 01:43:33;;;;;;;14.57;6.50;;;;;;;7.36;61.40;94723.59;4975551;28;20224;-69
2023/12/25 01:45:58;;;;;;;10.23;6.03;;;;;;;7.38;61.58;94716.47;4979197;28;20292;-69
2023/12/25 01:48:24;;;;;;;13.07;6.70;;;;;;;7.34;61.56;94715.06;4986123;28;20187;-70
2023/12/25 01:50:50;;;;;;;15.13;6.37;;;;;;;7.24;61.79;94722.09;4988367;28;20270;-70
2023/12/25 01:53:16;;;;;;;10.53;6.17;;;;;;;7.17;61.62;94729.69;4988287;28;20242;-70
2023/12/25 01:55:41;;;;;;;10.83;7.10;;;;;;;7.26;61.65;94734.06;4983131;28;20224;-70
2023/12/25 01:58:07;;;;;;;11.10;6.53;;;;;;;7.25;61.48;94726.38;4989627;28;20191;-70
2023/12/25 02:00:32;;;;;;;11.03;6.63;;;;;;;7.12;61.79;94728.44;4992827;28;20183;-70
2023/12/25 02:03:00;;;;;;;11.23;6.73;;;;;;;7.10;62.05;94732.97;4968082;28;20223;-70
2023/12/25 02:05:25;;;;;;;11.27;6.33;;;;;;;7.01;62.00;94738.06;4975987;28;20238;-68
2023/12/25 02:07:51;;;;;;;13.60;7.23;;;;;;;7.06;62.20;94738.50;4994527;28;20325;-69
2023/12/25 02:10:27;;;;;;;10.20;6.40;;;;;;;7.13;61.83;94743.97;4988063;28;20227;-69
2023/12/25 02:12:53;;;;;;;11.83;6.27;;;;;;;7.11;62.06;94745.06;4969401;28;20204;-70
2023/12/25 02:15:18;;;;;;;9.20;6.60;;;;;;;7.13;61.71;94737.94;4987529;28;20197;-69
2023/12/25 02:17:45;;;;;;;10.37;7.20;;;;;;;7.10;61.90;94732.97;4989585;28;20219;-69
2023/12/25 02:20:12;;;;;;;10.73;6.87;;;;;;;7.05;61.95;94728.97;4971009;28;20238;-69
2023/12/25 02:22:39;;;;;;;9.07;6.20;;;;;;;7.15;61.89;94736.00;4996917;28;20237;-69
2023/12/25 02:25:13;;;;;;;13.50;7.60;;;;;;;7.04;62.07;94732.56;5009910;28;20180;-69
2023/12/25 02:27:39;;;;;;;10.67;6.53;;;;;;;7.16;61.77;94729.81;4987303;28;20195;-68
2023/12/25 02:30:06;;;;;;;8.93;5.73;;;;;;;7.09;61.95;94742.63;4985743;28;20218;-68
2023/12/25 02:32:31;;;;;;;9.47;6.30;;;;;;;7.16;61.56;94725.41;4977291;28;20262;-68
2023/12/25 02:34:57;;;;;;;10.03;6.53;;;;;;;7.14;61.61;94731.75;4983383;28;20223;-68
2023/12/25 02:37:23;;;;;;;11.20;6.27;;;;;;;6.98;61.76;94725.28;4980796;28;20240;-68
2023/12/25 02:39:48;;;;;;;9.50;6.83;;;;;;;7.04;62.05;94734.34;4985256;28;20196;-69
2023/12/25 02:42:13;;;;;;;10.47;5.93;;;;;;;6.96;61.81;94714.13;4989682;28;20976;-70
2023/12/25 02:44:39;;;;;;;9.03;6.40;;;;;;;6.92;61.64;94719.75;4969240;28;20228;-70
2023/12/25 02:47:04;;;;;;;13.63;7.40;;;;;;;6.89;62.09;94720.84;4968238;28;20299;-70
2023/12/25 02:49:30;;;;;;;9.97;6.67;;;;;;;6.93;62.18;94735.31;4976363;28;20226;-70
2023/12/25 02:51:55;;;;;;;8.90;6.03;;;;;;;6.92;62.11;94723.19;4990193;28;20207;-70
2023/12/25 02:54:20;;;;;;;9.80;6.70;;;;;;;6.94;61.91;94723.88;4991524;28;20182;-70
2023/12/25 02:56:46;;;;;;;11.20;6.60;;;;;;;6.82;62.02;94744.09;4988682;28;20216;-70
2023/12/25 02:59:11;;;;;;;9.73;7.37;;;;;;;6.81;62.48;94734.59;4972288;28;20231;-69
2023/12/25 03:01:38;;;;;;;12.17;6.90;;;;;;;6.85;62.30;94732.56;4971335;28;20227;-70
2023/12/25 03:04:03;;;;;;;11.23;6.60;;;;;;;6.94;61.88;94742.19;4991003;28;20218;-70
2023/12/25 03:06:29;;;;;;;15.03;8.00;;;;;;;6.86;62.03;94742.03;4986608;28;20262;-70
2023/12/25 03:08:54;;;;;;;13.10;8.20;;;;;;;6.87;62.30;94748.94;4984991;28;20241;-70
2023/12/25 03:11:20;;;;;;;11.00;6.93;;;;;;;6.88;62.30;94760.22;4985642;28;20254;-70
2023/12/25 03:13:45;;;;;;;11.37;6.67;;;;;;;6.82;62.42;94757.19;4997282;28;20301;-70
2023/12/25 03:16:10;;;;;;;10.43;6.93;;;;;;;6.82;62.42;94751.94;4989551;28;20227;-70
2023/12/25 03:18:36;;;;;;;11.77;7.13;;;;;;;6.82;62.44;94751.13;4985358;28;20198;-70
2023/12/25 03:21:01;;;;;;;9.27;6.70;;;;;;;6.84;62.21;94760.47;4987843;28;20215;-70
2023/12/25 03:23:27;;;;;;;10.50;6.70;;;;;;;6.92;62.06;94757.16;4983294;28;20223;-70
2023/12/25 03:25:52;;;;;;;10.73;7.23;;;;;;;6.77;62.16;94774.22;4983360;28;20246;-69
2023/12/25 03:28:18;;;;;;;8.73;6.43;;;;;;;6.76;62.43;94757.72;4991315;28;20255;-70
2023/12/25 03:30:43;;;;;;;12.93;7.77;;;;;;;6.70;62.57;94770.47;5003934;28;20230;-70
2023/12/25 03:33:09;;;;;;;10.43;7.37;;;;;;;6.71;62.38;94770.38;4981565;28;20223;-70
2023/12/25 03:35:34;;;;;;;10.77;7.57;;;;;;;6.77;62.34;94769.00;4995794;28;20226;-69
2023/12/25 03:38:00;;;;;;;8.73;6.80;;;;;;;6.81;62.25;94781.63;4984963;28;20226;-69
2023/12/25 03:40:25;;;;;;;11.90;7.30;;;;;;;6.76;62.65;94777.78;5012143;28;20230;-70
2023/12/25 03:42:53;;;;;;;12.70;6.23;;;;;;;6.79;62.28;94787.97;4990290;28;20198;-69
2023/12/25 03:45:19;;;;;;;8.97;6.27;;;;;;;6.77;61.99;94782.88;4977672;28;20195;-70
2023/12/25 03:47:44;;;;;;;8.60;6.53;;;;;;;6.70;62.32;94773.91;4985251;28;20298;-69
2023/12/25 03:50:10;;;;;;;11.73;6.37;;;;;;;6.74;62.56;94798.00;4980399;28;20230;-69
2023/12/25 03:52:35;;;;;;;9.43;5.77;;;;;;;6.71;62.20;94790.41;4988500;28;20254;-70
2023/12/25 03:55:00;;;;;;;10.27;6.33;;;;;;;6.68;62.62;94790.69;4991890;28;20278;-69
2023/12/25 03:57:26;;;;;;;9.03;5.93;;;;;;;6.73;62.42;94799.78;4989289;28;20245;-69
2023/12/25 03:59:51;;;;;;;16.23;6.40;;;;;;;6.73;62.63;94788.50;4987270;28;20222;-69
2023/12/25 04:02:17;;;;;;;10.47;5.70;;;;;;;6.75;62.36;94791.81;4992614;28;20219;-69
2023/12/25 04:04:42;;;;;;;7.60;4.67;;;;;;;6.70;62.32;94817.50;4985418;28;20298;-69
2023/12/25 04:07:07;;;;;;;9.27;4.80;;;;;;;6.70;62.42;94797.44;4978819;28;20239;-69
2023/12/25 04:09:33;;;;;;;12.70;5.70;;;;;;;6.76;61.98;94814.34;4983167;28;20176;-70
2023/12/25 04:11:58;;;;;;;8.00;4.83;;;;;;;6.82;61.99;94793.75;4955318;28;20228;-69
2023/12/25 04:14:24;;;;;;;10.67;5.00;;;;;;;6.74;62.28;94806.66;4991504;28;20219;-69
2023/12/25 04:16:49;;;;;;;5.57;4.27;;;;;;;6.83;62.30;94808.47;4985177;28;20230;-69
2023/12/25 04:19:14;;;;;;;9.37;4.77;;;;;;;6.74;62.43;94801.44;4991796;28;20226;-69
2023/12/25 04:21:40;;;;;;;7.90;5.20;;;;;;;6.73;62.40;94798.94;4990138;28;20195;-67
2023/12/25 04:24:06;;;;;;;8.33;4.87;;;;;;;6.66;62.43;94805.69;4990707;28;20296;-70
2023/12/25 04:26:31;;;;;;;11.80;5.27;;;;;;;6.75;62.43;94810.09;4991627;28;20223;-70
2023/12/25 04:28:57;;;;;;;8.70;4.60;;;;;;;6.71;62.32;94778.19;4990163;28;20230;-70
2023/12/25 04:31:22;;;;;;;9.53;4.60;;;;;;;6.65;62.56;94798.78;4987363;28;20252;-69
2023/12/25 04:33:48;;;;;;;9.80;5.57;;;;;;;6.70;62.42;94805.28;4962016;28;20184;-69
2023/12/25 04:36:13;;;;;;;8.37;5.07;;;;;;;6.82;62.08;94793.75;4979735;28;20211;-69
2023/12/25 04:38:39;;;;;;;9.17;4.70;;;;;;;6.81;62.07;94796.50;4986777;28;20227;-69
2023/12/25 04:41:05;;;;;;;5.40;4.50;;;;;;;6.79;62.56;94796.66;4986356;28;20254;-69
2023/12/25 04:43:31;;;;;;;7.63;4.60;;;;;;;6.87;61.92;94814.28;5006595;28;20245;-69
2023/12/25 04:45:56;;;;;;;6.47;4.93;;;;;;;6.77;62.33;94819.47;4982291;28;20195;-68
2023/12/25 04:48:22;;;;;;;12.03;5.23;;;;;;;6.78;62.16;94810.66;4999737;28;20286;-69
2023/12/25 04:50:47;;;;;;;9.33;4.97;;;;;;;6.76;62.35;94814.34;4983575;28;20273;-69
2023/12/25 04:53:13;;;;;;;9.00;5.77;;;;;;;6.77;61.95;94813.41;4992250;28;20215;-69
2023/12/25 04:55:40;;;;;;;7.50;4.07;;;;;;;6.82;62.16;94826.91;4990052;28;20240;-69
2023/12/25 04:58:05;;;;;;;10.20;4.33;;;;;;;6.83;62.42;94816.31;4972736;28;20201;-69
2023/12/25 05:00:32;;;;;;;6.10;3.90;;;;;;;6.88;62.24;94815.09;4985491;28;20186;-69
2023/12/25 05:02:57;;;;;;;8.23;4.60;;;;;;;6.88;62.14;94815.91;4989943;28;20218;-69
2023/12/25 05:05:23;;;;;;;6.87;5.07;;;;;;;6.96;62.18;94810.84;4989833;28;20221;-69
2023/12/25 05:07:48;;;;;;;10.80;5.50;;;;;;;6.89;62.02;94808.91;4980219;28;20291;-69
2023/12/25 05:10:14;;;;;;;9.10;5.23;;;;;;;6.90;62.17;94794.88;4966523;28;20320;-69
2023/12/25 05:12:39;;;;;;;7.83;4.90;;;;;;;6.77;62.49;94798.56;4979858;28;20265;-69
2023/12/25 05:15:05;;;;;;;7.27;4.43;;;;;;;6.81;62.27;94796.50;4962437;28;20306;-68
2023/12/25 05:17:30;;;;;;;7.40;4.33;;;;;;;6.92;61.90;94800.78;4961762;28;20302;-69
2023/12/25 05:19:56;;;;;;;9.93;4.10;;;;;;;6.93;61.81;94795.44;4964007;28;20291;-70
2023/12/25 05:22:21;;;;;;;8.07;4.40;;;;;;;6.95;61.74;94806.59;4981104;28;20222;-69
2023/12/25 05:24:47;;;;;;;9.70;4.43;;;;;;;6.95;61.42;94817.03;4986539;28;20198;-70
2023/12/25 05:27:13;;;;;;;7.77;4.50;;;;;;;6.98;61.59;94829.03;4982207;28;20693;-69
2023/12/25 05:29:38;;;;;;;9.73;4.57;;;;;;;7.12;61.34;94840.88;4996451;28;20223;-69
2023/12/25 05:32:04;;;;;;;10.20;4.90;;;;;;;6.92;61.77;94835.59;4985539;28;20239;-70
2023/12/25 05:34:29;;;;;;;8.40;4.67;;;;;;;6.93;61.86;94837.25;4988898;28;20284;-69
2023/12/25 05:36:55;;;;;;;8.40;4.40;;;;;;;6.96;61.63;94830.94;4986876;28;20186;-69
2023/12/25 05:39:20;;;;;;;6.63;4.20;;;;;;;6.91;62.04;94820.88;4982305;28;20196;-69
2023/12/25 05:41:46;;;;;;;9.00;4.40;;;;;;;6.90;61.78;94805.34;4986517;28;20299;-69
2023/12/25 05:44:11;;;;;;;8.30;4.60;;;;;;;6.85;61.98;94809.16;4985862;28;20229;-69
2023/12/25 05:46:37;;;;;;;7.60;4.77;;;;;;;6.87;62.07;94814.28;4985588;28;20218;-69
2023/12/25 05:49:03;;;;;;;8.53;5.03;;;;;;;6.86;61.89;94828.28;4983305;28;20226;-69
2023/12/25 05:51:29;;;;;;;6.10;4.53;;;;;;;6.83;62.02;94846.84;4993396;28;20215;-69
2023/12/25 05:53:55;;;;;;;9.40;4.53;;;;;;;6.88;61.97;94844.66;4988866;28;20234;-68
2023/12/25 05:56:20;;;;;;;8.23;5.33;;;;;;;6.90;61.84;94821.84;4977972;28;20219;-69
2023/12/25 05:58:46;;;;;;;7.57;4.73;;;;;;;6.85;61.45;94829.25;4986541;28;20302;-70
2023/12/25 06:01:13;;;;;;;8.30;5.20;;;;;;;6.78;62.00;94815.06;4983316;28;20290;-69
2023/12/25 06:03:41;;;;;;;11.60;4.87;;;;;;;6.70;62.29;94826.19;4960575;28;20301;-69
2023/12/25 06:06:07;;;;;;;7.57;4.93;;;;;;;6.69;62.22;94842.81;5001878;28;20258;-69
2023/12/25 06:08:33;;;;;;;9.67;4.70;;;;;;;6.73;62.33;94832.91;4989577;28;20222;-70
2023/12/25 06:10:59;;;;;;;8.90;4.97;;;;;;;6.75;62.04;94844.06;4992026;28;20318;-70
2023/12/25 06:13:25;;;;;;;8.77;4.67;;;;;;;6.65;62.14;94846.66;4995707;28;20227;-70
2023/12/25 06:15:50;;;;;;;9.80;4.40;;;;;;;6.72;62.12;94866.06;4984479;28;20195;-69
2023/12/25 06:18:16;;;;;;;10.53;5.23;;;;;;;6.66;62.42;94873.63;4984213;28;20190;-70
2023/12/25 06:20:41;;;;;;;9.83;4.53;;;;;;;6.64;62.39;94871.13;4990482;28;20233;-71
2023/12/25 06:23:07;;;;;;;8.27;4.43;;;;;;;6.55;62.22;94891.03;4989389;28;20655;-70
2023/12/25 06:25:32;;;;;;;8.17;4.77;;;;;;;6.70;62.67;94898.53;4988491;28;20218;-70
2023/12/25 06:27:57;;;;;;;7.37;5.00;;;;;;;6.69;62.71;94882.00;4991129;28;20188;-70
2023/12/25 06:30:23;;;;;;;8.00;5.07;;;;;;;6.70;62.33;94881.03;4988724;28;20226;-69
2023/12/25 06:32:48;;;;;;;10.57;5.40;;;;;;;6.80;61.63;94888.94;4988828;28;20231;-70
2023/12/25 06:35:14;;;;;;;9.97;5.50;;;;;;;6.68;62.04;94884.75;4983914;28;20231;-70
2023/12/25 06:37:39;;;;;;;10.13;5.03;;;;;;;6.84;61.88;94891.16;4987311;28;20250;-70
2023/12/25 06:40:06;;;;;;;13.50;6.10;;;;;;;6.93;61.87;94884.31;4990289;28;20249;-70
2023/12/25 06:42:31;;;;;;;8.83;4.83;;;;;;;6.88;61.78;94876.03;4998656;28;20175;-70
2023/12/25 06:44:57;;;;;;;9.57;5.27;;;;;;;6.96;61.44;94860.50;5006833;28;20220;-70
2023/12/25 06:47:22;;;;;;;8.87;5.60;;;;;;;7.02;61.23;94873.03;4991657;28;20220;-70
2023/12/25 06:49:47;;;;;;;8.10;4.63;;;;;;;7.12;61.23;94880.91;4991165;28;20218;-70
2023/12/25 06:52:13;;;;;;;9.87;4.43;;;;;;;7.05;61.46;94864.91;5002527;28;20234;-71
2023/12/25 06:54:38;;;;;;;10.10;4.73;;;;;;;7.11;60.90;94873.19;4983975;28;20206;-70
2023/12/25 06:57:04;;;;;;;8.70;5.00;;;;;;;7.13;61.07;94877.34;4968583;28;20223;-70
2023/12/25 06:59:30;;;;;;;7.17;4.97;;;;;;;7.23;60.92;94885.22;4975537;28;20231;-71
2023/12/25 07:01:55;;;;;;;9.77;4.90;;;;;;;7.19;61.12;94889.03;4985195;28;20349;-70
2023/12/25 07:04:22;;;;;;;7.97;5.10;;;;;;;7.26;61.27;94903.25;4992006;28;20255;-70
2023/12/25 07:06:48;;;;;;;8.63;5.27;;;;;;;7.34;60.97;94903.41;4984190;28;20236;-69
2023/12/25 07:09:14;;;;;;;8.43;4.83;;;;;;;7.41;60.98;94890.63;4988397;28;20188;-70
2023/12/25 07:11:41;;;;;;;8.97;5.23;;;;;;;7.48;60.74;94889.09;4984204;28;20236;-70
2023/12/25 07:14:10;;;;;;;10.03;5.13;;;;;;;7.57;60.25;94903.16;4982636;28;20235;-70
2023/12/25 07:16:35;;;;;;;7.43;5.23;;;;;;;7.67;59.90;94903.97;4989899;28;20228;-70
2023/12/25 07:19:01;;;;;;;11.40;5.00;;;;;;;7.78;59.88;94908.25;4979245;28;20196;-70
2023/12/25 07:21:26;;;;;;;7.20;4.70;;;;;;;7.74;60.06;94900.69;4975408;28;20184;-70
2023/12/25 07:23:52;;;;;;;6.23;4.93;;;;;;;7.85;59.45;94893.66;4963162;28;20224;-70
2023/12/25 07:26:18;;;;;;;8.47;4.93;;;;;;;8.00;59.16;94907.19;4979373;28;20223;-71
2023/12/25 07:28:44;;;;;;;8.27;4.57;;;;;;;8.04;58.51;94893.66;4973026;28;20224;-70
2023/12/25 07:31:09;;;;;;;7.27;5.00;;;;;;;8.02;59.15;94894.75;4967806;28;20231;-70
2023/12/25 07:33:36;;;;;;;5.97;4.00;;;;;;;8.17;58.03;94904.66;4984758;28;20192;-70
2023/12/25 07:36:02;;;;;;;6.97;4.70;;;;;;;8.22;57.84;94913.91;4982828;28;20287;-70
2023/12/25 07:38:27;;;;;;;5.43;4.10;;;;;;;8.26;57.27;94900.41;4990314;28;20302;-70
2023/12/25 07:40:53;;;;;;;9.40;4.63;;;;;;;8.33;57.19;94906.72;4992336;28;20223;-71
2023/12/25 07:43:18;;;;;;;9.27;4.37;;;;;;;8.47;56.25;94913.31;4991613;28;20627;-71
2023/12/25 07:45:44;;;;;;;5.83;3.73;;;;;;;8.55;55.79;94899.53;4990278;28;20257;-71
2023/12/25 07:48:10;;;;;;;6.23;3.67;;;;;;;8.62;55.99;94903.22;4982397;28;20223;-71
2023/12/25 07:50:35;;;;;;;7.97;4.40;;;;;;;8.70;56.02;94903.34;4984506;28;20280;-72
2023/12/25 07:53:00;;;;;;;7.80;4.10;;;;;;;8.76;55.27;94902.75;4984983;28;20976;-72
2023/12/25 07:55:26;;;;;;;11.40;3.97;;;;;;;8.88;54.88;94918.34;4991030;28;20228;-71
2023/12/25 07:57:52;;;;;;;8.70;4.07;;;;;;;8.88;54.50;94915.72;4982996;28;20186;-71
2023/12/25 08:00:17;;;;;;;6.60;3.73;;;;;;;8.91;54.81;94926.72;4983481;28;20264;-72
2023/12/25 08:02:42;;;;;;;6.47;4.03;;;;;;;8.91;54.46;94916.25;4980151;28;20277;-72
2023/12/25 08:05:08;;;;;;;8.30;3.90;;;;;;;8.90;54.15;94903.25;4987394;28;20224;-72
2023/12/25 08:07:34;;;;;;;9.03;3.73;;;;;;;9.01;53.70;94900.47;4983669;28;20700;-72
2023/12/25 08:09:59;;;;;;;8.50;4.10;;;;;;;9.01;53.74;94903.94;4981426;28;20231;-71
2023/12/25 08:12:25;;;;;;;5.67;3.27;;;;;;;9.16;53.17;94912.13;4985148;28;20211;-72
2023/12/25 08:14:50;;;;;;;5.73;3.50;;;;;;;9.17;53.00;94921.66;4987643;28;20240;-75
2023/12/25 08:17:17;;;;;;;7.97;4.07;;;;;;;9.31;53.05;94930.03;4968241;28;20304;-71
2023/12/25 08:19:42;;;;;;;6.30;3.70;;;;;;;9.40;53.18;94931.75;4964351;28;20228;-71
2023/12/25 08:22:08;;;;;;;6.37;4.20;;;;;;;9.74;52.26;94933.78;4980752;28;20243;-71
2023/12/25 08:24:35;;;;;;;6.47;3.80;;;;;;;9.44;52.75;94915.56;4965281;28;20188;-70
2023/12/25 08:27:00;;;;;;;7.40;4.30;;;;;;;9.41;52.60;94913.25;4980680;28;20219;-71
2023/12/25 08:29:26;;;;;;;6.67;4.17;;;;;;;9.58;52.15;94916.03;4986988;28;20216;-71
2023/12/25 08:31:51;;;;;;;7.53;4.00;;;;;;;9.61;51.93;94913.94;4989871;28;20226;-72
2023/12/25 08:34:17;;;;;;;7.93;3.80;;;;;;;9.69;52.06;94905.31;4986778;28;20221;-71
2023/12/25 08:36:42;;;;;;;7.85;3.85;;;;;;;9.71;51.17;94909.47;4978731;28;20283;-72
2023/12/25 08:39:07;;;;;;;7.23;4.27;;;;;;;9.76;51.37;94923.94;4981696;28;20219;-72
2023/12/25 08:41:33;;;;;;;7.37;3.90;;;;;;;9.83;51.55;94923.19;4981137;28;20296;-72
2023/12/25 08:43:58;;;;;;;8.30;3.93;;;;;;;9.88;51.36;94920.94;4984307;28;20283;-71
2023/12/25 08:46:24;;;;;;;6.30;3.80;;;;;;;9.86;51.64;94917.66;4982286;28;20224;-73
2023/12/25 08:48:49;;;;;;;7.27;3.97;;;;;;;9.94;51.30;94909.84;4991167;28;20246;-70
2023/12/25 08:51:15;;;;;;;7.67;3.97;;;;;;;10.10;51.08;94903.06;4984941;28;20176;-73
2023/12/25 08:53:42;;;;;;;10.50;4.47;;;;;;;10.21;50.69;94902.84;4978745;28;20211;-73
2023/12/25 08:56:08;;;;;;;9.50;3.83;;;;;;;10.15;50.67;94906.88;4981757;28;20223;-76
2023/12/25 08:58:35;;;;;;;7.70;4.40;;;;;;;10.24;50.40;94918.31;4986888;28;20223;-72
2023/12/25 09:01:00;;;;;;;10.23;4.50;;;;;;;10.33;49.74;94900.81;4978300;28;20180;-71
2023/12/25 09:03:26;;;;;;;9.02;4.07;;;;;;;10.30;50.01;94886.19;4979893;28;20190;-71
2023/12/25 09:05:51;;;;;;;7.10;3.88;;;;;;;10.46;49.59;94880.22;4977630;28;20229;-71
2023/12/25 09:08:17;;;;;;;6.83;3.90;;;;;;;10.52;49.25;94879.59;4980467;28;20218;-72
2023/12/25 09:10:42;;;;;;;7.30;4.10;;;;;;;10.60;49.16;94879.66;4980549;28;20299;-71
2023/12/25 09:13:08;;;;;;;6.77;3.97;;;;;;;10.57;49.60;94885.22;4971283;28;20314;-71
2023/12/25 09:15:33;;;;;;;8.80;4.13;;;;;;;10.66;49.32;94893.97;4988530;28;20289;-71
2023/12/25 09:17:59;;;;;;;8.37;4.10;;;;;;;10.73;49.20;94888.94;4992792;28;20223;-70
2023/12/25 09:20:24;;;;;;;7.40;3.87;;;;;;;10.81;48.70;94886.34;4996753;28;20255;-70
2023/12/25 09:22:50;;;;;;;9.23;4.47;;;;;;;10.79;48.55;94867.25;5005132;28;20234;-70
2023/12/25 09:25:15;;;;;;;8.32;4.32;;;;;;;10.91;48.32;94860.75;4988548;28;20222;-71
2023/12/25 09:27:40;;;;;;;8.90;4.33;;;;;;;10.89;48.29;94860.06;4990632;28;20643;-74
2023/12/25 09:30:08;;;;;;;7.23;3.63;;;;;;;10.96;47.54;94852.38;5008824;28;20323;-72
2023/12/25 09:32:34;;;;;;;6.83;3.60;;;;;;;11.08;47.17;94861.63;4995120;28;20222;-71
2023/12/25 09:34:59;;;;;;;6.88;4.13;;;;;;;11.09;47.50;94868.53;4994806;28;20221;-72
2023/12/25 09:37:28;;;;;;;7.63;4.10;;;;;;;11.09;47.32;94863.28;4994795;28;20227;-72
2023/12/25 09:39:54;;;;;;;8.77;4.22;;;;;;;11.19;47.62;94868.41;4991613;28;20179;-71
2023/12/25 09:42:19;;;;;;;8.07;4.35;;;;;;;11.32;47.20;94879.31;5007368;28;20266;-72
2023/12/25 09:44:48;;;;;;;11.95;3.97;;;;;;;11.30;47.10;94865.50;4997249;28;20282;-71
2023/12/25 09:47:14;;;;;;;13.90;11.07;;;;;;;11.41;46.14;94856.47;4993703;28;20252;-71
2023/12/25 09:49:40;;;;;;;16.00;8.80;;;;;;;11.51;45.72;94857.16;4981894;28;20565;-71
2023/12/25 09:52:06;;;;;;;10.07;5.05;;;;;;;11.47;45.46;94861.94;4979228;28;20675;-71
2023/12/25 09:54:31;;;;;;;7.40;4.53;;;;;;;11.43;46.09;94857.97;4990977;28;20277;-71
2023/12/25 09:57:00;;;;;;;8.52;4.78;;;;;;;11.52;46.59;94853.56;4989979;28;20298;-73
2023/12/25 09:59:28;;;;;;;12.23;4.72;;;;;;;11.60;46.33;94858.00;4996510;28;20215;-71
2023/12/25 10:01:56;;;;;;;10.60;4.70;;;;;;;11.50;45.98;94850.25;4997485;28;20214;-72
2023/12/25 10:04:23;;;;;;;8.27;4.53;;;;;;;11.70;45.40;94854.22;5009184;28;20310;-72
2023/12/25 10:06:49;;;;;;;8.15;4.53;;;;;;;11.74;45.13;94849.47;4990814;28;20295;-70
2023/12/25 10:09:16;;;;;;;8.23;4.40;;;;;;;11.76;45.31;94854.56;4993310;28;20266;-70
2023/12/25 10:11:41;;;;;;;7.97;4.50;;;;;;;11.89;45.03;94850.53;5004626;28;20230;-72
2023/12/25 10:14:07;;;;;;;8.40;4.43;;;;;;;11.89;44.65;94847.03;4994846;28;20222;-72
2023/12/25 10:16:32;;;;;;;7.00;3.92;;;;;;;12.02;44.77;94838.66;4998304;28;20218;-72
2023/12/25 10:18:58;;;;;;;11.55;4.70;;;;;;;12.04;44.28;94836.69;4993614;28;20265;-71
2023/12/25 10:21:23;;;;;;;7.85;4.30;;;;;;;12.15;44.13;94838.97;5009026;28;20187;-71
2023/12/25 10:23:49;;;;;;;8.15;4.60;;;;;;;12.31;45.16;94838.94;4978213;28;20263;-71
2023/12/25 10:26:27;;;;;;;6.65;4.15;;;;;;;12.42;43.84;94835.16;4979090;28;20223;-72
2023/12/25 10:29:06;;;;;;;8.00;4.07;;;;;;;12.67;43.08;94843.00;4990366;28;20219;-71
2023/12/25 10:31:31;;;;;;;11.10;4.13;;;;;;;12.68;43.29;94829.66;4982259;28;20230;-71
2023/12/25 10:33:57;;;;;;;9.15;3.83;;;;;;;12.78;43.20;94830.28;4984325;28;20266;-71
2023/12/25 10:36:24;;;;;;;6.57;3.95;;;;;;;12.86;42.05;94821.53;4987912;28;20175;-70
2023/12/25 10:38:50;;;;;;;7.80;3.58;;;;;;;12.89;42.26;94815.09;4990387;28;20227;-72
2023/12/25 10:41:27;;;;;;;7.97;4.05;;;;;;;13.04;41.96;94808.06;4989913;28;20240;-72
2023/12/25 10:44:00;;;;;;;9.05;4.50;;;;;;;13.18;41.16;94815.28;5000912;28;20223;-70
2023/12/25 10:46:27;;;;;;;8.93;4.30;;;;;;;13.34;41.35;94808.28;4988752;28;20222;-71
2023/12/25 10:48:55;;;;;;;7.63;3.90;;;;;;;13.52;40.52;94803.56;4985368;28;20187;-73
2023/12/25 10:51:40;;;;;;;6.82;4.20;;;;;;;13.77;40.29;94806.06;4984874;28;20188;-72
2023/12/25 10:54:09;;;;;;;7.45;3.88;;;;;;;13.67;40.04;94806.28;4989777;28;20275;-71
2023/12/25 10:56:36;;;;;;;8.50;3.65;;;;;;;13.75;40.17;94800.13;4986625;28;20223;-70
2023/12/25 10:59:19;;;;;;;9.88;3.45;;;;;;;13.81;40.31;94804.69;5003901;28;20215;-71
2023/12/25 11:01:47;;;;;;;8.68;3.95;;;;;;;13.88;40.11;94800.34;4988171;28;20218;-72
2023/12/25 11:04:17;;;;;;;8.30;3.88;;;;;;;13.79;40.40;94794.31;4986998;28;20223;-71
2023/12/25 11:06:47;;;;;;;12.05;4.63;;;;;;;13.78;40.45;94791.84;4988538;28;20231;-71
2023/12/25 11:09:17;;;;;;;7.57;4.25;;;;;;;13.86;40.56;94799.69;4991079;28;20302;-72
2023/12/25 11:11:45;;;;;;;7.30;4.50;;;;;;;13.77;40.54;94803.41;5004599;28;20223;-72
2023/12/25 11:14:11;;;;;;;10.50;4.72;;;;;;;13.70;40.95;94799.81;4984263;28;20231;-72
2023/12/25 11:16:37;;;;;;;7.28;3.80;;;;;;;13.72;40.77;94790.72;4992315;28;20212;-73
2023/12/25 11:19:04;;;;;;;9.60;4.18;;;;;;;13.80;40.94;94787.22;4987661;28;20294;-71
2023/12/25 11:21:32;;;;;;;9.68;4.43;;;;;;;13.87;40.41;94796.03;4990799;28;20190;-72
2023/12/25 11:23:59;;;;;;;6.55;4.13;;;;;;;13.95;40.39;94797.81;4983829;28;20298;-71
2023/12/25 11:26:27;;;;;;;7.45;3.88;;;;;;;14.09;40.00;94794.41;4986691;28;20211;-72
2023/12/25 11:29:10;;;;;;;7.47;3.60;;;;;;;14.13;40.27;94791.19;4991972;28;20219;-72
2023/12/25 11:32:06;;;;;;;13.20;4.57;;;;;;;14.21;39.98;94794.78;5004787;28;20230;-71